Time;durP1;ratioP1;P1;durP2;ratioP2;P2;SDS_P1;SDS_P2;PMS_P1;PMS_P2;Temp;Humidity;BMP_temperature;BMP_pressure;BME280_temperature;BME280_humidity;BME280_pressure;Samples;Min_cycle;Max_cycle;Signal;HPM_P1;HPM_P2
2024/02/12 00:02:05;;;;;;;6.88;1.88;;;;;;;;;;6271552;28;20512;-73
2024/02/12 00:05:10;;;;;;;5.50;3.63;;;;;;;;;;6264684;28;20037;-73
2024/02/12 00:08:15;;;;;;;;;;;;;;;;;;6280571;28;20635;-73
2024/02/12 00:11:18;;;;;;;7.00;2.70;;;;;;;;;;6276172;28;19924;-74
2024/02/12 00:14:22;;;;;;;8.95;2.22;;;;;;;;;;6275123;28;20046;-74
2024/02/12 00:17:24;;;;;;;9.98;3.15;;;;;;;;;;6247282;28;20063;-74
2024/02/12 00:20:29;;;;;;;8.82;3.28;;;;;;;;;;6279224;28;20051;-73
2024/02/12 00:23:31;;;;;;;8.13;2.47;;;;;;;;;;6260091;28;20067;-73
2024/02/12 00:26:33;;;;;;;8.05;2.20;;;;;;;;;;6259226;28;20134;-73
2024/02/12 00:29:37;;;;;;;7.75;2.15;;;;;;;;;;6260758;28;20040;-73
2024/02/12 00:32:39;;;;;;;10.23;3.30;;;;;;;;;;6264548;28;20068;-74
2024/02/12 00:35:41;;;;;;;4.03;1.27;;;;;;;;;;6257979;28;20041;-73
2024/02/12 00:38:45;;;;;;;4.07;1.63;;;;;;;;;;6260673;28;20075;-72
2024/02/12 00:41:48;;;;;;;5.78;1.80;;;;;;;;;;6259484;28;20070;-72
2024/02/12 00:44:52;;;;;;;6.70;2.45;;;;;;;;;;6262794;28;20541;-72
2024/02/12 00:47:59;;;;;;;4.30;1.60;;;;;;;;;;6278156;28;20044;-72
2024/02/12 00:51:01;;;;;;;5.40;1.33;;;;;;;;;;6278831;28;20139;-72
2024/02/12 00:54:03;;;;;;;7.03;1.80;;;;;;;;;;6280192;28;20051;-73
2024/02/12 00:57:07;;;;;;;5.03;1.25;;;;;;;;;;6244621;28;20052;-73
2024/02/12 01:00:14;;;;;;;5.13;1.85;;;;;;;;;;6283503;28;20048;-73
2024/02/12 01:03:34;;;;;;;;;;;;;;;;;;6281983;28;20585;-74
2024/02/12 01:06:38;;;;;;;;;;;;;;;;;;6282609;28;20715;-74
2024/02/12 01:09:40;;;;;;;7.25;1.88;;;;;;;;;;6279582;28;19925;-74
2024/02/12 01:12:43;;;;;;;5.20;1.05;;;;;;;;;;6283444;28;20448;-74
2024/02/12 01:15:49;;;;;;;2.92;1.58;;;;;;;;;;6281674;28;20044;-73
2024/02/12 01:19:04;;;;;;;3.13;0.77;;;;;;;;;;6268797;28;20526;-73
2024/02/12 01:22:08;;;;;;;3.05;0.95;;;;;;;;;;6281543;28;20048;-73
2024/02/12 01:25:18;;;;;;;4.35;0.77;;;;;;;;;;6267842;28;20162;-74
2024/02/12 01:28:21;;;;;;;3.65;1.48;;;;;;;;;;6259795;28;20040;-73
2024/02/12 01:31:23;;;;;;;3.60;1.00;;;;;;;;;;6266986;28;20045;-75
2024/02/12 01:34:28;;;;;;;11.68;2.28;;;;;;;;;;6287386;28;20531;-74
2024/02/12 01:37:32;;;;;;;7.53;1.52;;;;;;;;;;6284921;28;20052;-74
2024/02/12 01:40:35;;;;;;;6.03;2.40;;;;;;;;;;6263812;28;20189;-73
2024/02/12 01:43:38;;;;;;;2.25;1.42;;;;;;;;;;6244434;28;20413;-74
2024/02/12 01:46:40;;;;;;;5.38;2.53;;;;;;;;;;6246896;28;20644;-74
2024/02/12 01:49:43;;;;;;;1.67;1.10;;;;;;;;;;6266198;28;20690;-73
2024/02/12 01:52:52;;;;;;;5.25;1.67;;;;;;;;;;6282530;28;20048;-74
2024/02/12 01:55:54;;;;;;;4.25;1.38;;;;;;;;;;6263396;28;20072;-74
2024/02/12 01:58:58;;;;;;;3.50;1.02;;;;;;;;;;6283929;28;20075;-74
2024/02/12 02:02:01;;;;;;;4.72;1.40;;;;;;;;;;6260977;28;20047;-74
2024/02/12 02:05:04;;;;;;;5.75;1.42;;;;;;;;;;6275834;28;20668;-73
2024/02/12 02:08:06;;;;;;;5.38;1.92;;;;;;;;;;6254172;28;20188;-73
2024/02/12 02:11:10;;;;;;;2.47;1.88;;;;;;;;;;6267234;28;20150;-73
2024/02/12 02:14:13;;;;;;;2.72;1.33;;;;;;;;;;6274671;28;20051;-73
2024/02/12 02:17:35;;;;;;;8.80;3.33;;;;;;;;;;6268668;28;20036;-73
2024/02/12 02:20:37;;;;;;;3.95;1.45;;;;;;;;;;6281651;28;20056;-73
2024/02/12 02:23:40;;;;;;;3.35;0.95;;;;;;;;;;6259451;28;20298;-74
2024/02/12 02:26:42;;;;;;;3.55;0.80;;;;;;;;;;6265132;28;20056;-73
2024/02/12 02:29:45;;;;;;;3.00;1.70;;;;;;;;;;6284948;28;20837;-74
2024/02/12 02:32:47;;;;;;;1.90;0.93;;;;;;;;;;6247502;28;20747;-74
2024/02/12 02:35:51;;;;;;;6.38;1.55;;;;;;;;;;6277247;28;20190;-74
2024/02/12 02:38:53;;;;;;;4.45;1.38;;;;;;;;;;6244827;28;20517;-74
2024/02/12 02:41:57;;;;;;;2.13;1.55;;;;;;;;;;6257726;28;20135;-73
2024/02/12 02:45:00;;;;;;;1.90;1.13;;;;;;;;;;6265584;28;20049;-74
2024/02/12 02:48:04;;;;;;;4.65;1.33;;;;;;;;;;6275350;28;20473;-74
2024/02/12 02:51:07;;;;;;;3.05;1.00;;;;;;;;;;6265019;28;20441;-74
2024/02/12 02:54:12;;;;;;;4.30;2.33;;;;;;;;;;6262862;28;20548;-72
2024/02/12 02:57:15;;;;;;;4.20;1.02;;;;;;;;;;6281311;28;20048;-73
2024/02/12 03:00:17;;;;;;;2.85;1.48;;;;;;;;;;6263887;28;20191;-73
2024/02/12 03:03:19;;;;;;;4.65;1.48;;;;;;;;;;6280534;28;20048;-73
2024/02/12 03:06:23;;;;;;;6.78;1.75;;;;;;;;;;6235702;28;20052;-73
2024/02/12 03:09:26;;;;;;;5.38;1.60;;;;;;;;;;6275459;28;20545;-73
2024/02/12 03:12:30;;;;;;;11.98;2.28;;;;;;;;;;6253446;28;20059;-73
2024/02/12 03:15:35;;;;;;;6.32;2.00;;;;;;;;;;6279301;28;20094;-73
2024/02/12 03:18:37;;;;;;;5.57;2.28;;;;;;;;;;6242731;28;20545;-73
2024/02/12 03:21:40;;;;;;;4.97;2.13;;;;;;;;;;6263448;28;20079;-73
2024/02/12 03:24:46;;;;;;;7.32;3.72;;;;;;;;;;6280257;28;20875;-72
2024/02/12 03:27:48;;;;;;;12.85;4.47;;;;;;;;;;6275133;28;20101;-73
2024/02/12 03:30:50;;;;;;;6.32;3.05;;;;;;;;;;6249534;28;20052;-73
2024/02/12 03:33:53;;;;;;;9.15;1.48;;;;;;;;;;6259039;28;20052;-73
2024/02/12 03:36:56;;;;;;;3.13;1.33;;;;;;;;;;6264222;28;20918;-73
2024/02/12 03:39:58;;;;;;;4.00;1.90;;;;;;;;;;6258741;28;20044;-73
2024/02/12 03:43:04;;;;;;;5.28;2.13;;;;;;;;;;6264625;28;20052;-73
2024/02/12 03:46:07;;;;;;;5.05;2.17;;;;;;;;;;6277675;28;20044;-73
2024/02/12 04:02:35;;;;;;;4.13;1.58;;;;;;;;;;6248878;28;20063;-74
2024/02/12 04:05:38;;;;;;;6.38;1.88;;;;;;;;;;6275404;28;20048;-74
2024/02/12 04:08:42;;;;;;;7.35;1.30;;;;;;;;;;6259118;28;20836;-74
2024/02/12 04:11:45;;;;;;;8.48;3.00;;;;;;;;;;6275242;28;20048;-74
2024/02/12 04:14:47;;;;;;;5.35;2.58;;;;;;;;;;6279921;28;20071;-74
2024/02/12 04:17:50;;;;;;;2.63;1.48;;;;;;;;;;6255738;28;20048;-74
2024/02/12 04:20:53;;;;;;;4.32;2.00;;;;;;;;;;6277028;28;20048;-75
2024/02/12 04:23:55;;;;;;;10.75;5.60;;;;;;;;;;6262884;28;20060;-74
2024/02/12 04:26:57;;;;;;;14.50;6.25;;;;;;;;;;6256019;28;20744;-74
2024/02/12 04:30:00;;;;;;;8.90;6.60;;;;;;;;;;6280609;28;20051;-74
2024/02/12 04:33:05;;;;;;;;;;;;;;;;;;6236011;28;20090;-75
2024/02/12 04:36:08;;;;;;;4.05;3.38;;;;;;;;;;6267287;28;19924;-75
2024/02/12 04:39:17;;;;;;;3.28;1.60;;;;;;;;;;6280195;28;20048;-74
2024/02/12 04:42:21;;;;;;;2.60;1.42;;;;;;;;;;6250480;28;20048;-76
2024/02/12 04:45:24;;;;;;;1.88;1.20;;;;;;;;;;6286272;28;20048;-76
2024/02/12 04:48:31;;;;;;;4.07;2.45;;;;;;;;;;6243954;28;20323;-76
2024/02/12 04:51:37;;;;;;;1.52;1.13;;;;;;;;;;6279347;28;20071;-74
2024/02/12 04:54:39;;;;;;;2.28;1.77;;;;;;;;;;6248246;28;20125;-75
2024/02/12 04:57:42;;;;;;;2.45;2.03;;;;;;;;;;6263810;28;20732;-75
2024/02/12 05:00:45;;;;;;;6.10;3.60;;;;;;;;;;6263671;28;20660;-74
2024/02/12 05:03:47;;;;;;;7.50;5.55;;;;;;;;;;6286520;28;20048;-75
2024/02/12 05:06:50;;;;;;;6.28;4.03;;;;;;;;;;6278601;28;20083;-75
2024/02/12 05:09:52;;;;;;;18.42;10.00;;;;;;;;;;6239727;28;20067;-76
2024/02/12 05:12:56;;;;;;;29.25;14.10;;;;;;;;;;6238983;28;20491;-75
2024/02/12 05:15:58;;;;;;;9.05;3.70;;;;;;;;;;6259801;28;20052;-75
2024/02/12 05:22:34;;;;;;;7.60;2.42;;;;;;;;;;6242226;28;20048;-75
2024/02/12 05:25:36;;;;;;;5.53;2.55;;;;;;;;;;6258330;28;20049;-75
2024/02/12 05:28:39;;;;;;;6.22;1.88;;;;;;;;;;6243334;28;20045;-75
2024/02/12 05:31:41;;;;;;;2.70;1.90;;;;;;;;;;6262066;28;20429;-74
2024/02/12 05:34:43;;;;;;;2.30;1.73;;;;;;;;;;6254874;28;20560;-74
2024/02/12 05:37:45;;;;;;;3.65;1.40;;;;;;;;;;6259976;28;20044;-75
2024/02/12 05:40:47;;;;;;;2.78;2.17;;;;;;;;;;6262621;28;20354;-74
2024/02/12 05:43:52;;;;;;;4.63;1.65;;;;;;;;;;6273288;28;20406;-74
2024/02/12 05:46:55;;;;;;;4.07;1.85;;;;;;;;;;6279317;28;20612;-75
2024/02/12 05:49:58;;;;;;;3.80;1.77;;;;;;;;;;6281061;28;20065;-75
2024/02/12 05:53:00;;;;;;;7.15;4.53;;;;;;;;;;6280911;28;20596;-74
2024/02/12 05:56:03;;;;;;;8.65;6.50;;;;;;;;;;6265784;28;20616;-75
2024/02/12 05:59:06;;;;;;;16.90;9.25;;;;;;;;;;6260537;28;20037;-75
2024/02/12 06:02:08;;;;;;;14.43;9.35;;;;;;;;;;6251964;28;20211;-74
2024/02/12 06:05:10;;;;;;;8.20;5.05;;;;;;;;;;6276755;28;20430;-75
2024/02/12 06:08:13;;;;;;;14.70;6.53;;;;;;;;;;6241386;28;20076;-75
2024/02/12 06:11:16;;;;;;;26.73;12.98;;;;;;;;;;6243027;28;20045;-75
2024/02/12 06:14:18;;;;;;;20.65;11.05;;;;;;;;;;6278424;28;20747;-75
2024/02/12 06:17:20;;;;;;;25.38;12.82;;;;;;;;;;6277795;28;20734;-74
2024/02/12 06:20:22;;;;;;;17.13;8.80;;;;;;;;;;6263598;28;20051;-74
2024/02/12 06:23:25;;;;;;;15.75;6.28;;;;;;;;;;6279047;28;20585;-75
2024/02/12 06:26:27;;;;;;;11.13;5.22;;;;;;;;;;6265669;28;20147;-75
2024/02/12 06:29:29;;;;;;;12.65;7.47;;;;;;;;;;6258519;28;20095;-75
2024/02/12 06:32:32;;;;;;;14.05;7.43;;;;;;;;;;6253321;28;20045;-75
2024/02/12 06:35:34;;;;;;;7.40;3.58;;;;;;;;;;6245141;28;20083;-76
2024/02/12 06:38:38;;;;;;;9.38;4.82;;;;;;;;;;6261543;28;20067;-74
2024/02/12 06:41:44;;;;;;;8.93;5.03;;;;;;;;;;6244098;28;20087;-74
2024/02/12 06:44:47;;;;;;;7.15;4.32;;;;;;;;;;6259565;28;20105;-74
2024/02/12 06:47:49;;;;;;;6.78;4.18;;;;;;;;;;6239076;28;20906;-74
2024/02/12 06:50:51;;;;;;;6.60;3.33;;;;;;;;;;6244497;28;20041;-74
2024/02/12 06:54:13;;;;;;;5.72;3.30;;;;;;;;;;6277834;28;20498;-74
2024/02/12 06:57:17;;;;;;;15.13;5.07;;;;;;;;;;6231742;28;20059;-74
2024/02/12 07:00:20;;;;;;;10.50;5.30;;;;;;;;;;6258843;28;20045;-74
2024/02/12 07:03:22;;;;;;;8.60;4.28;;;;;;;;;;6249318;28;20101;-74
2024/02/12 07:06:24;;;;;;;10.63;6.75;;;;;;;;;;6242207;28;20166;-74
2024/02/12 07:09:26;;;;;;;9.82;6.50;;;;;;;;;;6266284;28;20153;-74
2024/02/12 07:12:28;;;;;;;7.50;5.78;;;;;;;;;;6266205;28;20055;-75
2024/02/12 07:15:31;;;;;;;10.63;6.72;;;;;;;;;;6278365;28;20547;-74
2024/02/12 07:18:34;;;;;;;11.25;6.57;;;;;;;;;;6264627;28;20063;-74
2024/02/12 07:21:36;;;;;;;15.95;7.22;;;;;;;;;;6262140;28;20071;-74
2024/02/12 07:24:40;;;;;;;12.57;6.32;;;;;;;;;;6280803;28;20049;-74
2024/02/12 07:27:43;;;;;;;15.95;10.13;;;;;;;;;;6224538;28;20057;-74
2024/02/12 07:30:45;;;;;;;15.27;7.35;;;;;;;;;;6262824;28;20815;-73
2024/02/12 07:33:47;;;;;;;9.85;6.75;;;;;;;;;;6264373;28;20040;-73
2024/02/12 07:36:51;;;;;;;7.20;4.07;;;;;;;;;;6245453;28;20048;-74
2024/02/12 07:39:53;;;;;;;12.05;5.25;;;;;;;;;;6247411;28;20048;-74
2024/02/12 07:42:56;;;;;;;15.82;8.40;;;;;;;;;;6263653;28;20537;-74
2024/02/12 07:45:59;;;;;;;13.35;7.72;;;;;;;;;;6276841;28;20139;-74
2024/02/12 07:49:01;;;;;;;9.30;4.95;;;;;;;;;;6264689;28;20097;-74
2024/02/12 07:52:04;;;;;;;10.65;4.72;;;;;;;;;;6240416;28;20045;-73
2024/02/12 07:55:10;;;;;;;10.57;3.15;;;;;;;;;;6284131;28;20467;-74
2024/02/12 07:58:21;;;;;;;10.77;3.85;;;;;;;;;;6268206;28;20049;-74
2024/02/12 08:01:23;;;;;;;10.25;4.50;;;;;;;;;;6259702;28;20488;-74
2024/02/12 08:04:26;;;;;;;7.07;3.30;;;;;;;;;;6244033;28;20117;-74
2024/02/12 08:07:28;;;;;;;10.55;3.33;;;;;;;;;;6279609;28;20048;-76
2024/02/12 08:10:50;;;;;;;9.10;3.63;;;;;;;;;;6277716;28;20036;-74
2024/02/12 08:13:53;;;;;;;12.45;4.00;;;;;;;;;;6281405;28;20044;-73
2024/02/12 08:16:57;;;;;;;10.40;3.33;;;;;;;;;;6260987;28;20194;-74
2024/02/12 08:20:04;;;;;;;9.25;3.30;;;;;;;;;;6277003;28;20044;-74
2024/02/12 08:23:07;;;;;;;10.80;5.65;;;;;;;;;;6242992;28;20048;-74
2024/02/12 08:26:10;;;;;;;12.10;5.50;;;;;;;;;;6263496;28;20048;-74
2024/02/12 08:29:12;;;;;;;8.20;5.03;;;;;;;;;;6272554;28;20514;-74
2024/02/12 08:32:14;;;;;;;8.52;4.18;;;;;;;;;;6260688;28;20485;-75
2024/02/12 08:35:17;;;;;;;4.13;3.13;;;;;;;;;;6263291;28;20665;-74
2024/02/12 08:38:27;;;;;;;7.88;3.15;;;;;;;;;;6258011;28;20093;-74
2024/02/12 08:41:30;;;;;;;8.60;3.38;;;;;;;;;;6277571;28;20484;-75
2024/02/12 08:44:32;;;;;;;6.75;2.40;;;;;;;;;;6279671;28;20044;-74
2024/02/12 08:47:36;;;;;;;4.25;2.28;;;;;;;;;;6258839;28;20064;-74
2024/02/12 08:50:38;;;;;;;5.07;3.03;;;;;;;;;;6273302;28;20045;-75
2024/02/12 08:53:43;;;;;;;7.88;2.83;;;;;;;;;;6256618;28;20056;-74
2024/02/12 08:56:46;;;;;;;8.20;2.72;;;;;;;;;;6263053;28;20121;-74
2024/02/12 08:59:49;;;;;;;8.07;4.10;;;;;;;;;;6271083;28;20079;-75
2024/02/12 09:02:51;;;;;;;9.10;3.25;;;;;;;;;;6226982;28;20448;-74
2024/02/12 09:05:53;;;;;;;7.63;3.35;;;;;;;;;;6270697;28;20048;-73
2024/02/12 09:08:55;;;;;;;12.38;4.88;;;;;;;;;;6263231;28;20083;-75
2024/02/12 09:11:59;;;;;;;7.70;1.98;;;;;;;;;;6281300;28;20071;-75
2024/02/12 09:15:03;;;;;;;9.75;4.30;;;;;;;;;;6241216;28;20049;-75
2024/02/12 09:18:06;;;;;;;10.15;4.28;;;;;;;;;;6282227;28;20036;-74
2024/02/12 09:21:09;;;;;;;7.63;4.55;;;;;;;;;;6266830;28;20106;-74
2024/02/12 09:24:12;;;;;;;9.60;3.95;;;;;;;;;;6276148;28;20065;-74
2024/02/12 09:27:14;;;;;;;13.75;5.32;;;;;;;;;;6249126;28;20623;-74
2024/02/12 09:30:16;;;;;;;10.73;2.83;;;;;;;;;;6287014;28;20101;-74
2024/02/12 09:33:21;;;;;;;;;;;;;;;;;;6264901;28;20056;-74
2024/02/12 09:36:25;;;;;;;9.40;3.67;;;;;;;;;;6221911;28;19973;-74
2024/02/12 09:39:29;;;;;;;7.05;3.15;;;;;;;;;;6280678;28;20076;-74
2024/02/12 09:42:32;;;;;;;12.38;3.25;;;;;;;;;;6275153;28;20214;-74
2024/02/12 09:45:38;;;;;;;13.40;5.32;;;;;;;;;;6243873;28;20201;-74
2024/02/12 09:48:41;;;;;;;11.95;4.35;;;;;;;;;;6271861;28;20057;-74
2024/02/12 09:51:46;;;;;;;6.72;3.80;;;;;;;;;;6281424;28;20037;-74
2024/02/12 09:54:51;;;;;;;8.63;3.00;;;;;;;;;;6239035;28;20060;-74
2024/02/12 09:57:54;;;;;;;7.15;2.22;;;;;;;;;;6257854;28;20056;-74
2024/02/12 10:00:56;;;;;;;10.35;3.58;;;;;;;;;;6263651;28;20544;-74
2024/02/12 10:04:20;;;;;;;7.20;2.13;;;;;;;;;;6284945;28;20863;-74
2024/02/12 10:07:41;;;;;;;9.68;2.92;;;;;;;;;;6272899;28;20092;-74
2024/02/12 10:11:06;;;;;;;10.40;2.38;;;;;;;;;;6283495;28;20059;-73
2024/02/12 10:14:30;;;;;;;8.32;1.85;;;;;;;;;;6273694;28;20497;-74
2024/02/12 10:17:55;;;;;;;10.45;3.08;;;;;;;;;;6247551;28;20355;-73
2024/02/12 10:21:18;;;;;;;8.80;2.20;;;;;;;;;;6274481;28;20049;-74
2024/02/12 10:24:41;;;;;;;6.95;3.10;;;;;;;;;;6253623;28;20060;-73
2024/02/12 10:28:03;;;;;;;;;;;;;;;;;;6267971;28;20188;-74
2024/02/12 10:31:26;;;;;;;13.43;2.50;;;;;;;;;;6263220;28;19927;-74
2024/02/12 10:34:50;;;;;;;8.70;2.72;;;;;;;;;;6260011;28;20056;-74
2024/02/12 10:38:14;;;;;;;11.32;3.72;;;;;;;;;;6286161;28;20071;-74
2024/02/12 10:41:38;;;;;;;7.05;2.05;;;;;;;;;;6289471;28;20056;-74
2024/02/12 10:45:00;;;;;;;10.77;2.20;;;;;;;;;;6257407;28;20044;-74
2024/02/12 10:48:23;;;;;;;11.45;3.20;;;;;;;;;;6272604;28;20481;-74
2024/02/12 10:51:46;;;;;;;;;;;;;;;;;;6269535;28;20125;-75
2024/02/12 10:55:09;;;;;;;9.95;2.38;;;;;;;;;;6257914;28;19932;-74
2024/02/12 10:58:16;;;;;;;10.38;2.30;;;;;;;;;;6266897;28;20060;-75
2024/02/12 11:01:21;;;;;;;10.93;2.85;;;;;;;;;;6248515;28;20513;-74
2024/02/12 11:04:26;;;;;;;10.65;3.28;;;;;;;;;;6234787;28;20040;-74
2024/02/12 11:07:29;;;;;;;10.70;2.88;;;;;;;;;;6281316;28;20044;-75
2024/02/12 11:10:33;;;;;;;16.95;2.83;;;;;;;;;;6264876;28;20083;-74
2024/02/12 11:13:43;;;;;;;3.42;2.03;;;;;;;;;;6271103;28;20033;-74
2024/02/12 11:16:50;;;;;;;15.73;2.58;;;;;;;;;;6237859;28;20536;-74
2024/02/12 11:19:54;;;;;;;11.82;2.70;;;;;;;;;;6268588;28;20051;-75
2024/02/12 11:23:04;;;;;;;14.23;2.38;;;;;;;;;;6265225;28;20055;-74
2024/02/12 11:26:07;;;;;;;11.98;2.20;;;;;;;;;;6276332;28;20036;-74
2024/02/12 11:29:11;;;;;;;18.05;2.63;;;;;;;;;;6245798;28;20056;-74
2024/02/12 11:32:21;;;;;;;11.20;1.40;;;;;;;;;;6249676;28;20045;-74
2024/02/12 11:35:24;;;;;;;12.45;2.58;;;;;;;;;;6244789;28;20462;-74
2024/02/12 11:38:26;;;;;;;14.38;2.22;;;;;;;;;;6275469;28;20037;-74
2024/02/12 11:41:32;;;;;;;11.77;2.05;;;;;;;;;;6257389;28;20140;-74
2024/02/12 11:44:34;;;;;;;16.05;2.17;;;;;;;;;;6264736;28;20052;-75
2024/02/12 11:47:37;;;;;;;9.75;2.03;;;;;;;;;;6255195;28;20045;-75
2024/02/12 11:50:40;;;;;;;15.95;3.05;;;;;;;;;;6250778;28;20056;-75
2024/02/12 11:53:42;;;;;;;19.02;2.97;;;;;;;;;;6245911;28;20127;-74
2024/02/12 11:56:45;;;;;;;12.38;2.15;;;;;;;;;;6263438;28;20637;-74
2024/02/12 11:59:47;;;;;;;18.83;2.22;;;;;;;;;;6238638;28;20045;-74
2024/02/12 12:02:51;;;;;;;16.45;2.72;;;;;;;;;;6277261;28;20040;-75
2024/02/12 12:05:55;;;;;;;9.75;1.70;;;;;;;;;;6261190;28;20094;-74
2024/02/12 12:08:57;;;;;;;12.85;4.18;;;;;;;;;;6247419;28;20537;-74
2024/02/12 12:11:59;;;;;;;12.40;2.38;;;;;;;;;;6261138;28;20102;-75
2024/02/12 12:15:06;;;;;;;8.15;2.42;;;;;;;;;;6266473;28;20056;-74
2024/02/12 12:18:12;;;;;;;14.75;2.00;;;;;;;;;;6270868;28;20063;-74
2024/02/12 12:21:18;;;;;;;12.43;2.45;;;;;;;;;;6243359;28;20559;-75
2024/02/12 12:24:21;;;;;;;8.27;1.98;;;;;;;;;;6287411;28;20544;-75
2024/02/12 12:27:24;;;;;;;10.20;1.90;;;;;;;;;;6274301;28;20102;-75
2024/02/12 12:30:26;;;;;;;9.85;2.38;;;;;;;;;;6241541;28;20045;-75
2024/02/12 12:33:29;;;;;;;10.02;2.35;;;;;;;;;;6263934;28;20056;-75
2024/02/12 12:36:31;;;;;;;15.95;2.72;;;;;;;;;;6258848;28;20078;-75
2024/02/12 12:39:34;;;;;;;11.05;1.80;;;;;;;;;;6246152;28;20229;-75
2024/02/12 12:42:38;;;;;;;9.00;1.95;;;;;;;;;;6276169;28;20154;-75
2024/02/12 12:45:40;;;;;;;17.98;7.63;;;;;;;;;;6257923;28;20541;-75
2024/02/12 12:48:47;;;;;;;11.18;3.08;;;;;;;;;;6277396;28;20049;-75
2024/02/12 12:51:49;;;;;;;12.40;2.42;;;;;;;;;;6273437;28;20045;-75
2024/02/12 12:54:54;;;;;;;17.80;3.22;;;;;;;;;;6258624;28;20078;-75
2024/02/12 12:57:57;;;;;;;10.50;2.55;;;;;;;;;;6241248;28;20045;-75
2024/02/12 13:00:59;;;;;;;12.82;3.80;;;;;;;;;;6260417;28;20765;-75
2024/02/12 13:04:12;;;;;;;13.80;4.22;;;;;;;;;;6260936;28;20673;-75
2024/02/12 13:07:14;;;;;;;10.90;4.10;;;;;;;;;;6264159;28;20457;-75
2024/02/12 13:10:17;;;;;;;14.25;5.03;;;;;;;;;;6246370;28;20036;-75
2024/02/12 13:13:20;;;;;;;11.65;2.28;;;;;;;;;;6246159;28;20048;-73
2024/02/12 13:16:24;;;;;;;3.80;1.27;;;;;;;;;;6257377;28;20052;-74
2024/02/12 13:19:28;;;;;;;8.48;2.60;;;;;;;;;;6212943;28;20565;-74
2024/02/12 13:22:33;;;;;;;13.95;6.50;;;;;;;;;;6260746;28;20044;-74
2024/02/12 13:25:36;;;;;;;7.55;3.35;;;;;;;;;;6276211;28;20752;-74
2024/02/12 13:28:39;;;;;;;18.95;9.35;;;;;;;;;;6230163;28;20040;-74
2024/02/12 13:31:42;;;;;;;9.70;3.65;;;;;;;;;;6241633;28;20127;-75
2024/02/12 13:34:44;;;;;;;8.23;2.80;;;;;;;;;;6247362;28;20121;-74
2024/02/12 13:37:47;;;;;;;7.13;3.08;;;;;;;;;;6256849;28;20072;-75
2024/02/12 13:40:50;;;;;;;11.65;4.72;;;;;;;;;;6242805;28;20049;-74
2024/02/12 13:43:53;;;;;;;5.97;2.72;;;;;;;;;;6279797;28;20054;-75
2024/02/12 13:46:56;;;;;;;6.40;2.63;;;;;;;;;;6244232;28;20176;-75
2024/02/12 13:50:07;;;;;;;8.93;2.00;;;;;;;;;;6258685;28;20072;-74
2024/02/12 13:53:12;;;;;;;13.48;4.97;;;;;;;;;;6279618;28;20068;-74
2024/02/12 13:56:14;;;;;;;7.30;2.50;;;;;;;;;;6258188;28;20825;-75
2024/02/12 13:59:16;;;;;;;11.48;2.92;;;;;;;;;;6260199;28;20841;-73
2024/02/12 14:02:20;;;;;;;13.73;3.92;;;;;;;;;;6258297;28;20044;-74
2024/02/12 14:05:23;;;;;;;12.85;3.45;;;;;;;;;;6244878;28;20048;-73
2024/02/12 14:08:26;;;;;;;9.75;3.17;;;;;;;;;;6276849;28;20788;-74
2024/02/12 14:11:29;;;;;;;10.50;4.15;;;;;;;;;;6279739;28;20844;-76
2024/02/12 14:14:31;;;;;;;14.13;4.07;;;;;;;;;;6284226;28;20143;-76
2024/02/12 14:17:35;;;;;;;14.40;5.88;;;;;;;;;;6233813;28;20178;-75
2024/02/12 14:20:37;;;;;;;16.30;5.45;;;;;;;;;;6265507;28;20556;-77
2024/02/12 14:23:40;;;;;;;10.65;4.07;;;;;;;;;;6271208;28;20064;-74
2024/02/12 14:26:47;;;;;;;17.98;3.40;;;;;;;;;;6257019;28;20044;-75
2024/02/12 14:30:04;;;;;;;14.57;2.38;;;;;;;;;;6283003;28;20056;-75
2024/02/12 14:33:09;;;;;;;8.18;2.22;;;;;;;;;;6263065;28;20040;-75
2024/02/12 14:36:12;;;;;;;12.40;2.75;;;;;;;;;;6284287;28;20083;-75
2024/02/12 14:39:14;;;;;;;9.35;2.03;;;;;;;;;;6288306;28;20079;-73
2024/02/12 14:42:18;;;;;;;11.05;4.20;;;;;;;;;;6270381;28;20041;-75
2024/02/12 14:45:28;;;;;;;7.97;2.60;;;;;;;;;;6243396;28;20159;-74
2024/02/12 14:48:36;;;;;;;18.50;3.03;;;;;;;;;;6256857;28;20052;-75
2024/02/12 14:51:38;;;;;;;7.70;3.78;;;;;;;;;;6283889;28;20102;-75
2024/02/12 14:54:40;;;;;;;11.02;2.50;;;;;;;;;;6282119;28;20102;-74
2024/02/12 14:57:44;;;;;;;7.22;2.22;;;;;;;;;;6282009;28;20048;-75
2024/02/12 15:00:47;;;;;;;5.70;2.75;;;;;;;;;;6254297;28;20052;-74
2024/02/12 15:03:49;;;;;;;6.88;2.38;;;;;;;;;;6287586;28;20052;-75
2024/02/12 15:06:52;;;;;;;6.45;2.00;;;;;;;;;;6271092;28;20056;-76
2024/02/12 15:09:54;;;;;;;7.38;2.15;;;;;;;;;;6278606;28;20547;-75
2024/02/12 15:13:06;;;;;;;6.03;2.00;;;;;;;;;;6268831;28;20044;-76
2024/02/12 15:16:12;;;;;;;5.97;2.42;;;;;;;;;;6269681;28;20540;-76
2024/02/12 15:19:14;;;;;;;;;;;;;;;;;;6256865;28;20133;-76
2024/02/12 15:22:22;;;;;;;7.07;2.78;;;;;;;;;;6268283;28;19924;-75
2024/02/12 15:25:25;;;;;;;9.35;2.22;;;;;;;;;;6271259;28;20055;-76
2024/02/12 15:28:27;;;;;;;12.73;2.05;;;;;;;;;;6235035;28;20776;-74
2024/02/12 15:31:32;;;;;;;9.40;1.90;;;;;;;;;;6272331;28;20044;-74
2024/02/12 15:34:51;;;;;;;7.38;2.28;;;;;;;;;;6240916;28;20079;-75
2024/02/12 15:37:56;;;;;;;5.82;2.78;;;;;;;;;;6242727;28;20048;-74
2024/02/12 15:40:59;;;;;;;6.28;3.05;;;;;;;;;;6253343;28;20217;-74
2024/02/12 15:44:05;;;;;;;5.75;2.25;;;;;;;;;;6263045;28;20537;-74
2024/02/12 15:47:08;;;;;;;7.75;2.45;;;;;;;;;;6246874;28;20056;-75
2024/02/12 15:50:11;;;;;;;7.70;2.78;;;;;;;;;;6265599;28;20052;-76
2024/02/12 15:53:22;;;;;;;8.98;3.58;;;;;;;;;;6264187;28;20037;-75
2024/02/12 15:56:25;;;;;;;5.97;3.33;;;;;;;;;;6243558;28;20871;-75
2024/02/12 15:59:30;;;;;;;18.90;9.45;;;;;;;;;;6249359;28;20105;-75
2024/02/12 16:02:35;;;;;;;18.80;6.82;;;;;;;;;;6271116;28;20078;-75
2024/02/12 16:06:04;;;;;;;24.55;9.90;;;;;;;;;;6283721;28;20055;-74
2024/02/12 16:09:10;;;;;;;34.08;18.50;;;;;;;;;;6267194;28;20044;-74
2024/02/12 16:12:13;;;;;;;33.53;16.75;;;;;;;;;;6247401;28;20534;-74
2024/02/12 16:15:15;;;;;;;24.70;11.20;;;;;;;;;;6251821;28;20036;-75
2024/02/12 16:18:18;;;;;;;10.20;3.90;;;;;;;;;;6288908;28;20040;-75
2024/02/12 16:21:21;;;;;;;21.30;7.07;;;;;;;;;;6246464;28;20048;-74
2024/02/12 16:24:25;;;;;;;19.55;9.02;;;;;;;;;;6250092;28;20056;-74
2024/02/12 16:27:28;;;;;;;18.23;9.65;;;;;;;;;;6243447;28;20579;-73
2024/02/12 16:30:30;;;;;;;18.98;8.23;;;;;;;;;;6276639;28;20055;-75
2024/02/12 16:33:36;;;;;;;30.88;15.45;;;;;;;;;;6257554;28;20051;-76
2024/02/12 16:36:38;;;;;;;4.00;1.95;;;;;;;;;;6225933;28;20052;-78
2024/02/12 16:39:41;;;;;;;4.95;2.70;;;;;;;;;;6248188;28;20426;-76
2024/02/12 16:42:43;;;;;;;14.82;6.05;;;;;;;;;;6281820;28;20044;-77
2024/02/12 16:45:45;;;;;;;24.30;12.05;;;;;;;;;;6250548;28;20048;-76
2024/02/12 16:48:48;;;;;;;8.07;3.90;;;;;;;;;;6279865;28;20581;-76
2024/02/12 16:51:51;;;;;;;16.73;8.88;;;;;;;;;;6270667;28;20153;-75
2024/02/12 16:54:55;;;;;;;20.10;12.07;;;;;;;;;;6268014;28;20218;-76
2024/02/12 16:57:57;;;;;;;8.32;2.35;;;;;;;;;;6247886;28;20044;-76
2024/02/12 17:01:00;;;;;;;4.10;1.60;;;;;;;;;;6280343;28;20101;-76
2024/02/12 17:04:10;;;;;;;7.35;3.40;;;;;;;;;;6290214;28;20060;-76
2024/02/12 17:07:13;;;;;;;3.58;2.45;;;;;;;;;;6242285;28;21016;-76
2024/02/12 17:10:22;;;;;;;7.28;2.03;;;;;;;;;;6282118;28;20063;-76
2024/02/12 17:13:27;;;;;;;6.50;1.95;;;;;;;;;;6237559;28;20878;-76
2024/02/12 17:16:31;;;;;;;7.22;2.08;;;;;;;;;;6261996;28;20040;-76
2024/02/12 17:19:46;;;;;;;13.18;5.03;;;;;;;;;;6270214;28;20537;-76
2024/02/12 17:22:48;;;;;;;7.03;4.22;;;;;;;;;;6283725;28;20131;-76
2024/02/12 17:25:52;;;;;;;8.50;2.13;;;;;;;;;;6269849;28;20059;-75
2024/02/12 17:28:54;;;;;;;6.22;2.30;;;;;;;;;;6252745;28;20143;-76
2024/02/12 17:31:58;;;;;;;11.25;4.50;;;;;;;;;;6258237;28;20738;-76
2024/02/12 17:35:03;;;;;;;10.27;6.80;;;;;;;;;;6238556;28;20525;-76
2024/02/12 17:38:07;;;;;;;28.45;19.52;;;;;;;;;;6278984;28;20072;-76
2024/02/12 17:41:15;;;;;;;17.38;12.25;;;;;;;;;;6283453;28;20127;-76
2024/02/12 17:44:25;;;;;;;14.55;9.70;;;;;;;;;;6253952;28;20109;-76
2024/02/12 17:47:29;;;;;;;21.58;13.80;;;;;;;;;;6250487;28;20055;-76
2024/02/12 17:50:32;;;;;;;40.58;18.08;;;;;;;;;;6263320;28;20044;-75
2024/02/12 17:53:35;;;;;;;20.05;12.98;;;;;;;;;;6270236;28;20044;-77
2024/02/12 17:56:38;;;;;;;35.72;17.15;;;;;;;;;;6254002;28;20446;-77
2024/02/12 17:59:40;;;;;;;57.88;33.20;;;;;;;;;;6256945;28;20771;-76
2024/02/12 18:02:43;;;;;;;35.47;16.23;;;;;;;;;;6282471;28;20053;-76
2024/02/12 18:05:46;;;;;;;40.75;19.42;;;;;;;;;;6258178;28;20147;-77
2024/02/12 18:08:50;;;;;;;33.60;18.80;;;;;;;;;;6291719;28;20132;-77
2024/02/12 18:11:52;;;;;;;41.13;19.55;;;;;;;;;;6264553;28;20152;-76
2024/02/12 18:14:55;;;;;;;41.03;20.58;;;;;;;;;;6243772;28;20052;-76
2024/02/12 18:17:57;;;;;;;32.45;14.43;;;;;;;;;;6256651;28;20048;-77
2024/02/12 18:21:01;;;;;;;15.30;6.05;;;;;;;;;;6287520;28;20135;-77
2024/02/12 18:24:03;;;;;;;16.52;6.80;;;;;;;;;;6283841;28;20041;-75
2024/02/12 18:27:07;;;;;;;19.98;10.23;;;;;;;;;;6287644;28;20125;-76
2024/02/12 18:30:10;;;;;;;21.83;9.95;;;;;;;;;;6278812;28;20885;-76
2024/02/12 18:33:14;;;;;;;16.45;7.85;;;;;;;;;;6286248;28;20044;-76
2024/02/12 18:36:20;;;;;;;9.18;6.45;;;;;;;;;;6265653;28;20043;-75
2024/02/12 18:39:22;;;;;;;15.85;6.95;;;;;;;;;;6246001;28;20056;-74